Time;durP1;ratioP1;P1;durP2;ratioP2;P2;SDS_P1;SDS_P2;PMS_P1;PMS_P2;Temp;Humidity;BMP_temperature;BMP_pressure;BME280_temperature;BME280_humidity;BME280_pressure;Samples;Min_cycle;Max_cycle;Signal;HPM_P1;HPM_P2
2022/10/10 00:01:17;;;;;;;3.67;1.83;;;7.70;99.90;;;;;;5127528;27;20039;-66
2022/10/10 00:03:44;;;;;;;8.57;2.30;;;7.70;99.90;;;;;;5109023;27;20044;-66
2022/10/10 00:06:10;;;;;;;5.13;2.20;;;7.60;99.90;;;;;;5114489;27;20134;-66
2022/10/10 00:08:36;;;;;;;7.13;1.77;;;7.60;99.90;;;;;;5146759;27;20046;-66
2022/10/10 00:11:03;;;;;;;4.82;2.15;;;7.60;99.90;;;;;;5133568;27;20129;-67
2022/10/10 00:13:29;;;;;;;6.72;2.58;;;7.60;99.90;;;;;;5131650;27;20069;-66
2022/10/10 00:15:55;;;;;;;5.63;1.83;;;7.60;99.90;;;;;;5127483;27;20043;-66
2022/10/10 00:18:21;;;;;;;5.03;1.73;;;7.50;99.90;;;;;;5144998;27;20039;-66
2022/10/10 00:20:49;;;;;;;6.18;2.00;;;7.50;99.90;;;;;;5147674;27;20050;-66
2022/10/10 00:23:15;;;;;;;3.58;1.73;;;7.50;99.90;;;;;;5149978;27;20039;-66
2022/10/10 00:25:41;;;;;;;4.57;2.15;;;7.40;99.90;;;;;;5147819;27;20046;-66
2022/10/10 00:28:07;;;;;;;5.00;2.08;;;7.50;99.90;;;;;;5148584;27;20402;-66
2022/10/10 00:30:33;;;;;;;6.50;2.03;;;7.40;99.90;;;;;;5149068;27;20050;-66
2022/10/10 00:32:59;;;;;;;6.03;2.20;;;7.40;99.90;;;;;;5128931;27;20122;-66
2022/10/10 00:35:25;;;;;;;3.55;1.80;;;7.40;99.90;;;;;;5124624;27;20053;-66
2022/10/10 00:37:50;;;;;;;1.95;1.85;;;7.40;99.90;;;;;;5121492;27;20588;-66
2022/10/10 00:40:16;;;;;;;6.78;2.00;;;7.40;99.90;;;;;;5131145;27;20039;-66
2022/10/10 00:42:42;;;;;;;6.07;2.33;;;7.40;99.90;;;;;;5128671;27;20042;-67
2022/10/10 00:45:37;;;;;;;4.85;1.83;;;7.30;99.90;;;;;;5148766;27;20107;-67
2022/10/10 00:48:18;;;;;;;3.25;1.60;;;7.40;99.90;;;;;;5130906;27;20046;-66
2022/10/10 00:51:04;;;;;;;6.75;2.03;;;7.40;99.90;;;;;;5133742;27;20107;-67
2022/10/10 00:53:41;;;;;;;6.72;2.10;;;7.40;99.90;;;;;;5131255;27;20053;-67
2022/10/10 00:56:09;;;;;;;4.80;1.73;;;7.50;99.90;;;;;;5130077;27;20049;-67
2022/10/10 00:58:39;;;;;;;6.28;1.90;;;7.50;99.90;;;;;;5130136;27;20058;-67
2022/10/10 01:01:05;;;;;;;;;;;7.50;99.90;;;;;;5131226;27;20049;-67
2022/10/10 01:03:31;;;;;;;5.28;1.63;;;7.50;99.90;;;;;;5129290;27;19919;-67
2022/10/10 01:05:57;;;;;;;4.82;1.80;;;7.60;99.90;;;;;;5148723;27;20058;-67
2022/10/10 01:08:22;;;;;;;4.55;1.45;;;7.60;99.90;;;;;;5147413;27;20100;-66
2022/10/10 01:11:20;;;;;;;3.08;1.33;;;7.60;99.90;;;;;;5115608;27;20047;-67
2022/10/10 01:14:12;;;;;;;3.13;1.40;;;7.60;99.90;;;;;;5129533;27;20038;-66
2022/10/10 01:17:03;;;;;;;4.65;1.48;;;7.60;99.90;;;;;;5128514;27;20087;-67
2022/10/10 01:19:53;;;;;;;5.65;1.95;;;7.60;99.90;;;;;;5130557;27;20043;-67
2022/10/10 01:22:24;;;;;;;4.03;1.60;;;7.60;99.90;;;;;;5123540;27;20400;-89
2022/10/10 01:25:02;;;;;;;6.32;1.70;;;7.60;99.90;;;;;;5114200;27;20123;-66
2022/10/10 01:27:40;;;;;;;4.80;1.63;;;7.60;99.90;;;;;;5148732;27;20400;-67
2022/10/10 01:30:15;;;;;;;4.60;1.85;;;7.60;99.90;;;;;;5134439;27;20546;-85
2022/10/10 01:32:57;;;;;;;6.25;1.70;;;7.50;99.90;;;;;;5125081;27;20122;-67
2022/10/10 01:35:42;;;;;;;4.68;1.70;;;7.50;99.90;;;;;;5130316;27;20092;-66
2022/10/10 01:38:35;;;;;;;5.75;1.75;;;7.50;99.90;;;;;;5128719;27;20566;-67
2022/10/10 01:41:10;;;;;;;3.05;1.52;;;7.50;99.90;;;;;;5129905;27;20046;-67
2022/10/10 01:43:36;;;;;;;3.05;1.30;;;7.40;99.90;;;;;;5133811;27;20042;-88
2022/10/10 01:46:14;;;;;;;5.80;1.60;;;7.40;99.90;;;;;;5128696;27;20152;-67
2022/10/10 01:48:41;;;;;;;4.40;1.60;;;7.20;99.90;;;;;;5129952;27;20129;-67
2022/10/10 01:51:36;;;;;;;3.50;1.85;;;7.20;99.90;;;;;;5127307;27;20404;-66
2022/10/10 01:54:30;;;;;;;8.00;1.80;;;7.20;99.90;;;;;;5117886;27;20055;-67
2022/10/10 01:57:19;;;;;;;3.67;1.60;;;7.10;99.90;;;;;;5146808;27;20123;-66
2022/10/10 02:00:04;;;;;;;7.75;1.85;;;7.10;99.90;;;;;;5068513;28;20121;-67
2022/10/10 02:02:29;;;;;;;4.05;1.30;;;7.00;99.90;;;;;;5123895;27;20047;-67
2022/10/10 02:05:03;;;;;;;5.57;1.90;;;7.00;99.90;;;;;;5127066;27;20534;-66
2022/10/10 02:08:13;;;;;;;2.95;1.73;;;6.90;99.90;;;;;;5128919;27;20519;-66
2022/10/10 02:10:55;;;;;;;4.85;2.10;;;6.80;99.90;;;;;;5115010;27;20047;-67
2022/10/10 02:13:25;;;;;;;3.00;2.03;;;6.80;99.90;;;;;;5145986;27;20069;-67
2022/10/10 02:15:54;;;;;;;5.68;1.48;;;6.80;99.90;;;;;;5129067;27;20117;-67
2022/10/10 02:18:24;;;;;;;2.33;1.55;;;6.80;99.90;;;;;;5146580;27;20047;-67
2022/10/10 02:20:51;;;;;;;6.50;1.80;;;6.80;99.90;;;;;;5146700;27;20110;-67
2022/10/10 02:23:20;;;;;;;8.95;1.70;;;6.80;99.90;;;;;;5129521;27;20121;-66
2022/10/10 02:25:54;;;;;;;7.13;1.67;;;6.80;99.90;;;;;;5127227;27;20138;-75
2022/10/10 02:28:38;;;;;;;3.88;1.77;;;6.80;99.90;;;;;;5115951;27;20047;-67
2022/10/10 02:31:42;;;;;;;3.30;1.80;;;6.90;99.90;;;;;;5127025;27;20103;-67
2022/10/10 02:34:15;;;;;;;5.78;1.90;;;6.90;99.90;;;;;;5128080;27;20797;-66
2022/10/10 02:36:47;;;;;;;6.55;1.70;;;6.90;99.90;;;;;;5147926;27;20050;-67
2022/10/10 02:39:14;;;;;;;6.75;1.88;;;6.90;99.90;;;;;;5128067;27;20062;-67
2022/10/10 02:41:42;;;;;;;4.32;1.42;;;7.00;99.90;;;;;;5129681;27;20043;-67
2022/10/10 02:44:10;;;;;;;6.20;1.52;;;7.00;99.90;;;;;;5127616;27;20047;-66
2022/10/10 02:46:36;;;;;;;3.85;1.42;;;7.00;99.90;;;;;;5147231;27;20434;-67
2022/10/10 02:49:02;;;;;;;4.68;1.50;;;7.00;99.90;;;;;;5129006;27;20050;-67
2022/10/10 02:51:27;;;;;;;5.78;1.40;;;7.10;99.90;;;;;;5146243;27;20454;-66
2022/10/10 02:53:53;;;;;;;5.78;1.85;;;7.10;99.90;;;;;;5129046;27;20046;-67
2022/10/10 02:56:19;;;;;;;5.72;1.80;;;7.10;99.90;;;;;;5146877;27;20043;-67
2022/10/10 02:58:44;;;;;;;7.20;1.75;;;7.10;99.90;;;;;;5125847;28;20031;-66
2022/10/10 03:01:10;;;;;;;6.20;2.13;;;7.10;99.90;;;;;;5136813;27;20041;-67
2022/10/10 03:03:36;;;;;;;7.47;1.60;;;7.10;99.90;;;;;;5147670;27;20050;-67
2022/10/10 03:06:02;;;;;;;5.03;1.70;;;7.10;99.90;;;;;;5128314;27;20518;-66
2022/10/10 03:08:28;;;;;;;5.55;1.80;;;7.10;99.90;;;;;;5111162;27;20092;-67
2022/10/10 03:10:59;;;;;;;3.70;1.58;;;7.10;99.90;;;;;;5117105;27;20042;-67
2022/10/10 03:13:25;;;;;;;4.50;1.55;;;7.20;99.90;;;;;;5149746;27;20148;-66
2022/10/10 03:15:51;;;;;;;1.75;1.40;;;7.20;99.90;;;;;;5132656;27;20480;-66
2022/10/10 03:18:17;;;;;;;4.60;1.60;;;7.20;99.90;;;;;;5131066;27;20054;-66
2022/10/10 03:20:45;;;;;;;2.53;1.45;;;7.20;99.90;;;;;;5150810;27;20453;-66
2022/10/10 03:23:11;;;;;;;3.72;1.92;;;7.10;99.90;;;;;;5149767;27;20129;-66
2022/10/10 03:25:41;;;;;;;5.30;2.05;;;7.20;99.90;;;;;;5132012;27;20135;-66
2022/10/10 03:28:07;;;;;;;;;;;7.20;99.90;;;;;;5150978;27;20548;-66
2022/10/10 03:30:34;;;;;;;6.88;1.70;;;7.20;99.90;;;;;;5149975;27;19947;-67
2022/10/10 03:32:59;;;;;;;3.58;1.75;;;7.20;99.90;;;;;;5150809;27;20353;-66
2022/10/10 03:35:25;;;;;;;5.00;2.38;;;7.20;99.90;;;;;;5131049;27;20108;-66
2022/10/10 03:37:51;;;;;;;3.78;1.67;;;7.20;99.90;;;;;;5132037;27;20121;-66
2022/10/10 03:40:16;;;;;;;5.40;1.95;;;7.20;99.90;;;;;;5130599;27;20046;-66
2022/10/10 03:42:42;;;;;;;2.75;1.75;;;7.20;99.90;;;;;;5132212;27;20042;-66
2022/10/10 03:45:08;;;;;;;2.80;1.70;;;7.20;99.90;;;;;;5150110;27;20042;-66
2022/10/10 03:47:33;;;;;;;2.17;1.80;;;7.20;99.90;;;;;;5149830;27;20043;-66
2022/10/10 03:49:59;;;;;;;2.47;1.65;;;7.10;99.90;;;;;;5150442;27;20030;-66
2022/10/10 03:52:25;;;;;;;4.45;2.10;;;7.10;99.90;;;;;;5110051;27;20074;-66
2022/10/10 03:54:51;;;;;;;7.25;2.10;;;7.10;99.90;;;;;;5127251;27;20062;-66
2022/10/10 03:57:16;;;;;;;5.75;2.05;;;7.10;99.90;;;;;;5149094;27;20043;-66
2022/10/10 03:59:42;;;;;;;8.10;1.88;;;7.10;99.90;;;;;;5131616;27;20050;-66
2022/10/10 04:02:08;;;;;;;7.03;2.28;;;7.10;99.90;;;;;;5130536;27;20046;-86
2022/10/10 04:04:33;;;;;;;2.58;1.90;;;7.10;99.90;;;;;;5114237;27;20047;-66
2022/10/10 04:06:59;;;;;;;2.35;1.70;;;7.00;99.90;;;;;;5131375;27;20183;-66
2022/10/10 04:09:25;;;;;;;3.72;1.83;;;7.00;99.90;;;;;;5128278;27;20043;-66
2022/10/10 04:11:51;;;;;;;4.32;2.22;;;7.00;99.90;;;;;;5152682;27;20031;-69
2022/10/10 04:14:16;;;;;;;2.92;2.10;;;7.00;99.90;;;;;;5131978;27;20050;-66
2022/10/10 04:16:42;;;;;;;6.70;2.28;;;7.00;99.90;;;;;;5133151;27;20057;-66
2022/10/10 04:19:08;;;;;;;4.82;2.03;;;7.00;99.90;;;;;;5147682;27;20398;-66
2022/10/10 04:21:34;;;;;;;5.47;2.00;;;7.00;99.90;;;;;;5149104;27;20038;-66
2022/10/10 04:23:59;;;;;;;4.00;2.10;;;6.90;99.90;;;;;;5148967;27;20100;-66
2022/10/10 04:26:25;;;;;;;3.28;1.85;;;6.90;99.90;;;;;;5130335;27;20122;-66
2022/10/10 04:28:51;;;;;;;2.20;1.70;;;6.90;99.90;;;;;;5131407;27;20396;-66
2022/10/10 04:31:17;;;;;;;5.40;2.00;;;6.90;99.90;;;;;;5128288;27;20068;-66
2022/10/10 04:33:42;;;;;;;7.10;2.13;;;6.90;99.90;;;;;;5131202;27;20127;-66
2022/10/10 04:36:08;;;;;;;7.72;2.22;;;6.80;99.90;;;;;;5128954;27;20138;-66
2022/10/10 04:38:34;;;;;;;4.38;1.73;;;6.80;99.90;;;;;;5114258;27;20849;-66
2022/10/10 04:41:00;;;;;;;4.43;1.70;;;6.80;99.90;;;;;;5146854;27;20504;-66
2022/10/10 04:43:25;;;;;;;2.30;1.77;;;6.80;99.90;;;;;;5130401;27;20075;-66
2022/10/10 04:45:51;;;;;;;5.63;2.00;;;6.80;99.90;;;;;;5147187;27;20038;-66
2022/10/10 04:48:17;;;;;;;2.72;1.73;;;6.70;99.90;;;;;;5146834;27;20027;-66
2022/10/10 04:50:43;;;;;;;2.47;1.85;;;6.70;99.90;;;;;;5149158;27;20034;-66
2022/10/10 04:53:08;;;;;;;5.50;1.92;;;6.70;99.90;;;;;;5147083;27;20050;-66
2022/10/10 04:55:34;;;;;;;4.30;2.22;;;6.70;99.90;;;;;;5149584;27;20084;-66
2022/10/10 04:58:00;;;;;;;6.90;2.10;;;6.70;99.90;;;;;;5138968;27;20088;-66
2022/10/10 05:00:26;;;;;;;2.25;1.80;;;6.70;99.90;;;;;;5131569;27;20507;-66
2022/10/10 05:02:51;;;;;;;3.88;2.40;;;6.60;99.90;;;;;;5121891;27;20627;-66
2022/10/10 05:05:17;;;;;;;10.18;2.38;;;6.60;99.90;;;;;;5128984;27;20469;-66
2022/10/10 05:07:43;;;;;;;7.72;1.83;;;6.60;99.90;;;;;;5112732;27;20046;-66
2022/10/10 05:10:09;;;;;;;5.18;2.08;;;6.60;99.90;;;;;;5117423;27;20126;-66
2022/10/10 05:12:34;;;;;;;4.32;1.88;;;6.60;99.90;;;;;;5146655;27;20039;-66
2022/10/10 05:15:00;;;;;;;3.88;2.25;;;6.60;99.90;;;;;;5129544;27;20226;-66
2022/10/10 05:17:26;;;;;;;3.58;2.20;;;6.50;99.90;;;;;;5129602;27;20078;-66
2022/10/10 05:19:52;;;;;;;7.57;2.42;;;6.60;99.90;;;;;;5129074;27;20046;-66
2022/10/10 05:22:18;;;;;;;2.70;2.40;;;6.50;99.90;;;;;;5109289;27;20497;-66
2022/10/10 05:24:44;;;;;;;3.53;2.13;;;6.60;99.90;;;;;;5147390;27;20162;-65
2022/10/10 05:27:09;;;;;;;6.45;2.40;;;6.50;99.90;;;;;;5129314;27;20070;-66
2022/10/10 05:29:35;;;;;;;3.85;2.20;;;6.50;99.90;;;;;;5129987;27;20055;-66
2022/10/10 05:32:01;;;;;;;3.55;2.30;;;6.60;99.90;;;;;;5111661;27;20051;-65
2022/10/10 05:34:26;;;;;;;5.88;2.50;;;6.60;99.90;;;;;;5129833;27;20368;-66
2022/10/10 05:36:55;;;;;;;6.95;2.15;;;6.60;99.90;;;;;;5147341;27;20434;-66
2022/10/10 05:39:21;;;;;;;5.03;2.15;;;6.60;99.90;;;;;;5148059;27;20088;-66
2022/10/10 05:41:46;;;;;;;5.25;2.30;;;6.70;99.90;;;;;;5129476;27;20043;-65
2022/10/10 05:44:12;;;;;;;7.85;2.35;;;6.70;99.90;;;;;;5147761;27;20530;-66
2022/10/10 05:46:38;;;;;;;3.15;2.40;;;6.70;99.90;;;;;;5148731;27;20503;-66
2022/10/10 05:49:03;;;;;;;3.10;2.10;;;6.70;99.90;;;;;;5147226;27;20182;-66
2022/10/10 05:51:29;;;;;;;2.53;2.13;;;6.70;99.90;;;;;;5148170;27;20560;-66
2022/10/10 05:53:56;;;;;;;2.70;2.05;;;6.60;99.90;;;;;;5128586;27;20050;-66
2022/10/10 05:56:22;;;;;;;6.15;2.38;;;6.60;99.90;;;;;;5130090;27;20114;-65
2022/10/10 05:58:50;;;;;;;5.13;2.40;;;6.60;99.90;;;;;;5128705;27;20521;-81
2022/10/10 06:01:16;;;;;;;2.60;2.17;;;6.60;99.90;;;;;;5129093;27;20050;-66
2022/10/10 06:03:41;;;;;;;3.25;2.38;;;6.60;99.90;;;;;;5129216;27;20027;-75
2022/10/10 06:06:07;;;;;;;4.38;2.58;;;6.70;99.90;;;;;;5147141;27;20152;-66
2022/10/10 06:08:33;;;;;;;5.50;2.40;;;6.70;99.90;;;;;;5148027;27;20043;-78
2022/10/10 06:11:06;;;;;;;4.63;2.45;;;6.70;99.90;;;;;;5118957;28;20050;-66
2022/10/10 06:13:32;;;;;;;5.93;2.85;;;6.80;99.90;;;;;;5134478;27;20066;-84
2022/10/10 06:15:58;;;;;;;6.45;3.05;;;6.80;99.90;;;;;;5107918;27;20035;-66
2022/10/10 06:18:24;;;;;;;6.30;2.65;;;6.80;99.90;;;;;;5148223;27;20077;-66
2022/10/10 06:20:50;;;;;;;5.18;2.45;;;6.80;99.90;;;;;;5128496;27;20047;-66
2022/10/10 06:23:17;;;;;;;4.65;2.45;;;6.90;99.90;;;;;;5146742;27;20046;-66
2022/10/10 06:25:42;;;;;;;6.28;2.60;;;6.90;99.90;;;;;;5148546;27;20153;-66
2022/10/10 06:28:09;;;;;;;3.78;2.20;;;7.00;99.90;;;;;;5146718;27;20117;-66
2022/10/10 06:30:40;;;;;;;5.82;2.60;;;6.90;99.90;;;;;;5148026;27;20078;-66
2022/10/10 06:33:06;;;;;;;;;;;7.00;99.90;;;;;;5147113;27;20428;-67
2022/10/10 06:35:32;;;;;;;3.15;2.50;;;7.00;99.90;;;;;;5147473;27;20001;-66
2022/10/10 06:37:57;;;;;;;5.78;2.60;;;7.10;99.90;;;;;;5147055;27;20164;-66
2022/10/10 06:40:23;;;;;;;3.90;2.22;;;7.20;99.90;;;;;;5147121;27;20144;-67
2022/10/10 06:42:49;;;;;;;3.05;2.55;;;7.30;99.90;;;;;;5147898;27;20488;-73
2022/10/10 06:45:14;;;;;;;4.35;2.88;;;7.40;99.90;;;;;;5147399;27;20039;-67
2022/10/10 06:47:40;;;;;;;3.50;2.42;;;7.60;99.90;;;;;;5145286;27;20046;-66
2022/10/10 06:50:07;;;;;;;5.32;2.70;;;7.80;99.90;;;;;;5150497;27;20038;-66
2022/10/10 06:52:32;;;;;;;5.82;2.72;;;7.90;99.90;;;;;;5133224;27;20087;-67
2022/10/10 06:54:58;;;;;;;3.78;2.75;;;8.00;99.90;;;;;;5149968;27;20034;-66
2022/10/10 06:57:24;;;;;;;6.30;2.90;;;8.10;99.90;;;;;;5151601;27;20038;-66
2022/10/10 06:59:50;;;;;;;3.50;2.85;;;8.10;99.90;;;;;;5151159;27;20054;-67
2022/10/10 07:02:15;;;;;;;8.52;3.60;;;8.30;99.90;;;;;;5131454;27;20118;-66
2022/10/10 07:04:41;;;;;;;3.03;2.70;;;8.30;99.90;;;;;;5133113;27;20047;-66
2022/10/10 07:07:07;;;;;;;5.50;2.95;;;8.50;99.90;;;;;;5140573;27;20106;-67
2022/10/10 07:09:32;;;;;;;6.10;2.97;;;8.50;99.90;;;;;;5144204;27;20035;-78
2022/10/10 07:11:58;;;;;;;6.28;2.95;;;8.60;99.90;;;;;;5141704;27;20116;-66
2022/10/10 07:14:24;;;;;;;6.55;3.03;;;8.70;99.90;;;;;;5151163;27;20045;-66
2022/10/10 07:16:49;;;;;;;6.72;3.10;;;8.80;99.90;;;;;;5126817;27;20117;-66
2022/10/10 07:19:15;;;;;;;7.55;3.53;;;8.90;99.90;;;;;;5132234;27;20039;-66
2022/10/10 07:21:41;;;;;;;11.57;3.40;;;9.00;99.90;;;;;;5150856;27;20454;-66
2022/10/10 07:24:06;;;;;;;4.93;3.03;;;9.10;99.90;;;;;;5113980;27;20054;-66
2022/10/10 07:26:36;;;;;;;3.60;2.92;;;9.20;99.90;;;;;;5119002;27;20039;-66
2022/10/10 07:29:04;;;;;;;5.63;3.08;;;9.20;99.90;;;;;;5116116;27;20039;-67
2022/10/10 07:31:29;;;;;;;5.18;3.35;;;9.30;99.90;;;;;;5139896;27;20511;-66
2022/10/10 07:33:55;;;;;;;3.70;2.83;;;9.40;99.90;;;;;;5149662;27;20359;-67
2022/10/10 07:36:21;;;;;;;7.28;3.05;;;9.50;99.90;;;;;;5128400;27;20038;-68
2022/10/10 07:38:51;;;;;;;6.90;3.67;;;9.60;99.90;;;;;;5129406;27;20079;-66
2022/10/10 07:41:18;;;;;;;9.40;3.85;;;9.80;99.90;;;;;;5147530;27;20123;-66
2022/10/10 07:43:44;;;;;;;5.03;3.35;;;9.90;99.90;;;;;;5148720;27;20035;-65
2022/10/10 07:46:18;;;;;;;7.80;2.97;;;10.00;99.90;;;;;;5127674;27;20052;-67
2022/10/10 07:48:45;;;;;;;7.68;3.40;;;10.10;99.90;;;;;;5124095;27;20055;-66
2022/10/10 07:51:11;;;;;;;12.88;3.13;;;10.20;99.90;;;;;;5120195;27;20409;-83
2022/10/10 07:53:37;;;;;;;5.25;3.50;;;10.40;99.90;;;;;;5129421;27;20038;-66
2022/10/10 07:56:05;;;;;;;4.30;3.10;;;10.50;99.90;;;;;;5147326;27;20045;-67
2022/10/10 07:58:33;;;;;;;7.18;3.42;;;10.60;99.90;;;;;;5146108;27;20590;-66
2022/10/10 08:01:07;;;;;;;4.72;3.15;;;10.70;99.90;;;;;;5148055;27;20030;-79
2022/10/10 08:03:33;;;;;;;9.20;3.42;;;10.90;99.90;;;;;;5109876;27;20103;-66
2022/10/10 08:06:03;;;;;;;7.95;3.63;;;11.10;99.90;;;;;;5129005;27;20054;-67
2022/10/10 08:08:29;;;;;;;17.80;2.88;;;11.20;99.90;;;;;;5127830;27;20516;-66
2022/10/10 08:10:54;;;;;;;7.57;3.50;;;11.30;99.90;;;;;;5116786;27;20085;-65
2022/10/10 08:13:20;;;;;;;5.88;3.72;;;11.30;99.90;;;;;;5148762;27;20134;-67
2022/10/10 08:15:50;;;;;;;3.97;3.40;;;11.30;99.90;;;;;;5130149;27;20366;-86
2022/10/10 08:18:17;;;;;;;10.63;3.67;;;11.30;99.90;;;;;;5150423;27;20391;-87
2022/10/10 08:20:42;;;;;;;5.00;3.83;;;11.40;99.90;;;;;;5129579;27;20493;-63
2022/10/10 08:23:08;;;;;;;7.45;3.13;;;11.50;99.90;;;;;;5121323;27;20055;-65
2022/10/10 08:25:34;;;;;;;15.88;4.43;;;11.60;99.90;;;;;;5125817;27;20039;-65
2022/10/10 08:28:00;;;;;;;6.25;3.28;;;11.80;99.90;;;;;;5123965;27;20400;-65
2022/10/10 08:30:26;;;;;;;11.32;4.18;;;11.90;99.90;;;;;;5125653;27;20035;-68
2022/10/10 08:32:52;;;;;;;12.30;4.05;;;12.00;99.90;;;;;;5110134;27;20096;-65
2022/10/10 08:35:18;;;;;;;7.43;4.00;;;12.00;99.90;;;;;;5132309;27;20043;-66
2022/10/10 08:37:43;;;;;;;6.53;3.40;;;12.00;99.90;;;;;;5129470;27;20046;-66
2022/10/10 08:40:14;;;;;;;8.38;4.05;;;12.00;99.90;;;;;;5130873;27;20032;-67
2022/10/10 08:42:45;;;;;;;9.40;4.70;;;12.00;99.90;;;;;;5126104;27;20039;-65
2022/10/10 08:45:16;;;;;;;11.38;4.13;;;12.00;99.90;;;;;;5130058;27;20047;-65
2022/10/10 08:47:59;;;;;;;8.40;4.15;;;12.10;99.90;;;;;;5126965;27;20106;-72
2022/10/10 08:50:41;;;;;;;9.25;3.95;;;12.10;99.90;;;;;;5128984;27;20051;-65
2022/10/10 08:53:13;;;;;;;11.80;4.30;;;12.10;99.90;;;;;;5125536;27;20039;-65
2022/10/10 08:55:42;;;;;;;9.05;4.00;;;12.20;99.90;;;;;;5126572;27;20043;-66
2022/10/10 08:58:22;;;;;;;5.28;4.43;;;12.30;99.90;;;;;;5114019;27;20102;-70
2022/10/10 09:01:09;;;;;;;;;;;12.30;99.90;;;;;;5125551;27;20048;-67
2022/10/10 09:03:41;;;;;;;9.07;4.18;;;12.30;99.90;;;;;;5125253;27;19919;-82
2022/10/10 09:06:13;;;;;;;13.20;4.93;;;12.30;99.90;;;;;;5126913;27;20506;-65
2022/10/10 09:08:57;;;;;;;9.85;4.25;;;12.20;99.90;;;;;;5126139;27;20053;-66
2022/10/10 09:11:46;;;;;;;7.75;3.55;;;12.20;99.90;;;;;;5116279;27;20488;-65
2022/10/10 09:14:24;;;;;;;10.27;4.25;;;12.30;99.90;;;;;;5124171;27;20508;-66
2022/10/10 09:17:01;;;;;;;9.85;4.28;;;12.40;99.90;;;;;;5117379;27;20501;-88
2022/10/10 09:19:45;;;;;;;7.55;4.30;;;12.50;99.90;;;;;;5110457;27;20058;-65
2022/10/10 09:22:19;;;;;;;9.00;5.43;;;12.70;99.90;;;;;;5110959;27;20508;-65
2022/10/10 09:24:53;;;;;;;13.93;4.28;;;12.90;99.90;;;;;;5147960;27;20059;-65
2022/10/10 09:27:31;;;;;;;10.40;3.85;;;13.10;99.90;;;;;;5129512;27;20035;-66
2022/10/10 09:30:13;;;;;;;11.50;4.47;;;13.30;99.90;;;;;;5131892;27;20050;-66
2022/10/10 09:32:43;;;;;;;8.05;4.50;;;13.50;99.90;;;;;;5134348;27;20030;-66
2022/10/10 09:35:23;;;;;;;11.15;4.15;;;13.60;99.90;;;;;;5132390;27;20501;-68
2022/10/10 09:37:56;;;;;;;9.95;3.78;;;13.60;99.90;;;;;;5149233;27;20043;-66
2022/10/10 09:40:30;;;;;;;9.68;4.22;;;13.70;99.90;;;;;;5147974;27;20076;-66
2022/10/10 09:42:56;;;;;;;12.30;4.95;;;13.60;99.90;;;;;;5147961;27;20131;-66
2022/10/10 09:45:35;;;;;;;6.20;4.25;;;13.70;99.90;;;;;;5106922;27;20508;-65
2022/10/10 09:48:01;;;;;;;9.43;4.83;;;13.70;99.90;;;;;;5136446;27;20110;-65
2022/10/10 09:50:27;;;;;;;8.60;4.78;;;13.70;99.90;;;;;;5130596;27;20470;-66
2022/10/10 09:52:53;;;;;;;14.60;4.90;;;13.80;99.90;;;;;;5109306;27;20073;-67
2022/10/10 09:55:39;;;;;;;8.68;4.40;;;13.90;99.90;;;;;;5132378;27;20063;-65
2022/10/10 09:58:14;;;;;;;12.38;4.97;;;14.00;99.90;;;;;;5124603;27;20400;-70
2022/10/10 10:00:40;;;;;;;7.57;4.32;;;14.20;99.90;;;;;;5143436;27;20042;-66
2022/10/10 10:03:18;;;;;;;8.25;4.75;;;14.20;99.90;;;;;;5131198;27;20563;-66
2022/10/10 10:06:01;;;;;;;14.10;4.50;;;14.30;99.90;;;;;;5146004;27;20062;-66
2022/10/10 10:08:30;;;;;;;11.93;4.30;;;14.30;99.90;;;;;;5131142;27;20043;-67
2022/10/10 10:10:57;;;;;;;10.32;4.45;;;14.30;99.90;;;;;;5134521;27;20102;-77
2022/10/10 10:13:35;;;;;;;8.52;4.82;;;14.30;99.90;;;;;;5149211;27;20038;-66
2022/10/10 10:16:06;;;;;;;13.15;5.50;;;14.30;99.90;;;;;;5131366;27;20062;-66
2022/10/10 10:18:41;;;;;;;7.80;4.53;;;14.30;99.90;;;;;;5130158;27;20047;-91
2022/10/10 10:21:07;;;;;;;9.10;4.60;;;14.20;99.90;;;;;;5134086;27;20091;-66
2022/10/10 10:23:34;;;;;;;8.55;4.88;;;14.20;99.90;;;;;;5146974;27;20043;-66
2022/10/10 10:26:15;;;;;;;10.35;4.32;;;14.20;99.90;;;;;;5141475;27;20049;-65
2022/10/10 10:28:42;;;;;;;10.23;5.15;;;14.20;99.90;;;;;;5136280;27;20039;-66
2022/10/10 10:31:36;;;;;;;10.93;5.00;;;14.20;99.90;;;;;;5141777;27;20097;-66
2022/10/10 10:34:11;;;;;;;6.57;4.28;;;14.30;99.90;;;;;;5149432;27;20046;-67
2022/10/10 10:37:00;;;;;;;16.50;5.30;;;14.40;99.90;;;;;;5138949;27;20043;-66
2022/10/10 10:39:54;;;;;;;11.52;5.05;;;14.50;99.90;;;;;;5122836;27;20084;-66
2022/10/10 10:42:38;;;;;;;8.10;4.63;;;14.60;99.90;;;;;;5131506;27;20042;-66
2022/10/10 10:45:23;;;;;;;13.00;5.25;;;14.70;99.90;;;;;;5139358;27;20039;-66
2022/10/10 10:47:57;;;;;;;11.02;5.45;;;14.80;99.90;;;;;;5130474;27;20481;-74
2022/10/10 10:50:42;;;;;;;10.95;4.68;;;15.00;99.90;;;;;;5138736;27;20480;-66
2022/10/10 10:53:36;;;;;;;8.73;5.00;;;15.10;99.90;;;;;;5126896;27;20042;-66
2022/10/10 10:56:01;;;;;;;12.23;4.72;;;15.20;99.90;;;;;;5132716;27;20071;-66
2022/10/10 10:58:40;;;;;;;8.10;4.90;;;15.40;99.90;;;;;;5132341;27;20046;-89
2022/10/10 11:01:21;;;;;;;12.07;5.18;;;15.60;99.90;;;;;;5126817;27;20163;-91
2022/10/10 11:04:11;;;;;;;11.57;5.70;;;15.70;99.90;;;;;;5150263;27;20051;-85
2022/10/10 11:06:48;;;;;;;9.43;4.45;;;15.90;99.90;;;;;;5116061;27;20533;-66
2022/10/10 11:09:33;;;;;;;7.68;5.18;;;16.10;99.90;;;;;;5142007;27;20548;-92
2022/10/10 11:11:58;;;;;;;8.27;4.10;;;16.30;99.90;;;;;;5133088;27;20117;-66
2022/10/10 11:14:43;;;;;;;6.85;4.40;;;16.30;99.90;;;;;;5136471;27;20111;-66
2022/10/10 11:17:18;;;;;;;13.80;4.38;;;16.40;99.90;;;;;;5146116;27;20154;-66
2022/10/10 11:19:55;;;;;;;14.40;4.18;;;16.50;99.90;;;;;;5139353;27;20655;-78
2022/10/10 11:22:27;;;;;;;8.40;3.95;;;16.50;99.30;;;;;;5147790;27;20041;-67
2022/10/10 11:25:01;;;;;;;11.77;4.80;;;16.40;99.40;;;;;;5144568;27;20066;-84
2022/10/10 11:27:44;;;;;;;12.02;4.10;;;16.50;97.90;;;;;;5129611;27;20041;-65
2022/10/10 11:30:29;;;;;;;5.82;3.80;;;16.50;99.20;;;;;;5151303;27;20035;-68
2022/10/10 11:33:02;;;;;;;11.93;4.97;;;16.50;96.30;;;;;;5144849;27;20484;-66
2022/10/10 11:35:59;;;;;;;6.57;3.63;;;16.50;97.80;;;;;;5135045;27;20589;-66
2022/10/10 11:38:38;;;;;;;9.75;4.32;;;16.50;98.60;;;;;;5145969;27;20502;-67
2022/10/10 11:41:14;;;;;;;7.38;4.05;;;16.40;99.70;;;;;;5151763;27;20046;-77
2022/10/10 11:43:56;;;;;;;10.57;4.30;;;16.40;99.90;;;;;;5150383;27;20038;-66
2022/10/10 11:46:28;;;;;;;8.30;3.63;;;16.40;99.90;;;;;;5128143;27;20059;-78
2022/10/10 11:49:12;;;;;;;10.15;3.15;;;16.30;96.60;;;;;;5127808;27;20050;-66
2022/10/10 11:51:56;;;;;;;7.72;3.78;;;16.20;96.70;;;;;;5134550;27;20642;-80
2022/10/10 11:54:33;;;;;;;11.25;3.50;;;16.00;96.00;;;;;;5131517;27;20042;-66
2022/10/10 11:57:04;;;;;;;8.98;3.28;;;15.90;97.70;;;;;;5142777;27;20366;-66
2022/10/10 11:59:52;;;;;;;10.13;3.80;;;15.80;98.30;;;;;;5131407;27;20485;-66
2022/10/10 12:02:30;;;;;;;7.03;3.15;;;15.70;99.90;;;;;;5143583;27;20027;-71
2022/10/10 12:04:56;;;;;;;10.35;3.63;;;15.50;99.90;;;;;;5120977;27;20050;-66
2022/10/10 12:07:31;;;;;;;8.90;4.03;;;15.40;99.90;;;;;;5139928;27;20138;-66
2022/10/10 12:10:18;;;;;;;5.75;2.63;;;15.30;99.90;;;;;;5136410;27;20066;-66
2022/10/10 12:12:47;;;;;;;5.90;3.15;;;15.20;99.90;;;;;;5147082;27;20347;-66
2022/10/10 12:15:35;;;;;;;6.57;3.40;;;15.20;99.90;;;;;;5151322;27;20039;-65
2022/10/10 12:18:01;;;;;;;5.25;3.28;;;15.00;99.90;;;;;;5150015;27;20042;-66
2022/10/10 12:20:26;;;;;;;10.73;3.17;;;15.00;99.90;;;;;;5149811;27;20046;-67
2022/10/10 12:23:21;;;;;;;8.07;3.78;;;14.90;99.90;;;;;;5149667;27;20080;-75
2022/10/10 12:25:47;;;;;;;5.45;3.38;;;14.90;99.90;;;;;;5130188;27;20053;-66
2022/10/10 12:28:13;;;;;;;7.40;3.47;;;14.80;99.90;;;;;;5149831;27;20047;-67
2022/10/10 12:30:54;;;;;;;8.10;3.67;;;14.70;99.90;;;;;;5133403;27;20042;-68
2022/10/10 12:33:42;;;;;;;6.45;3.55;;;14.70;99.90;;;;;;5128279;27;20042;-67
2022/10/10 12:36:17;;;;;;;6.32;3.35;;;14.60;99.90;;;;;;5144737;27;20038;-67
2022/10/10 12:39:05;;;;;;;8.40;4.43;;;14.50;99.90;;;;;;5137348;27;20079;-71
2022/10/10 12:41:49;;;;;;;10.23;3.95;;;14.50;99.90;;;;;;5152925;27;20127;-66
2022/10/10 12:44:40;;;;;;;10.10;3.97;;;14.50;99.90;;;;;;5133209;27;20046;-66
2022/10/10 12:47:14;;;;;;;12.73;3.67;;;14.50;99.90;;;;;;5146692;27;20051;-82
2022/10/10 12:49:50;;;;;;;8.43;3.42;;;14.50;99.90;;;;;;5135903;27;20042;-66
2022/10/10 12:52:21;;;;;;;7.65;3.95;;;14.50;99.90;;;;;;5114704;27;20106;-67
2022/10/10 12:54:48;;;;;;;6.00;3.88;;;14.50;99.90;;;;;;5132824;27;20432;-67
2022/10/10 12:57:29;;;;;;;13.18;4.28;;;14.50;99.90;;;;;;5132811;27;20038;-67
2022/10/10 12:59:55;;;;;;;14.63;4.75;;;14.40;99.90;;;;;;5131153;27;20091;-67
2022/10/10 13:02:24;;;;;;;10.68;4.07;;;14.40;99.90;;;;;;5132879;27;20047;-67
2022/10/10 13:04:54;;;;;;;10.40;4.85;;;14.40;99.90;;;;;;5149329;27;20522;-67
2022/10/10 13:07:21;;;;;;;9.23;4.93;;;14.40;99.90;;;;;;5135146;27;20030;-67
2022/10/10 13:09:50;;;;;;;11.90;4.40;;;14.30;99.90;;;;;;5116413;27;20525;-68
2022/10/10 13:12:25;;;;;;;9.68;4.47;;;14.30;99.90;;;;;;5155534;27;20048;-68
2022/10/10 13:14:52;;;;;;;7.95;4.85;;;14.30;99.90;;;;;;5134342;27;20042;-68